sensor_id;sensor_type;location;lat;lon;timestamp;pressure;altitude;pressure_sealevel;temperature;humidity
38225;BME280;24025;48.138;11.428;2023-04-08T00:01:20;95606.78;;;5.50;77.67
38225;BME280;24025;48.138;11.428;2023-04-08T00:03:51;95609.75;;;5.49;77.88
38225;BME280;24025;48.138;11.428;2023-04-08T00:06:23;95605.75;;;5.43;77.83
38225;BME280;24025;48.138;11.428;2023-04-08T00:08:57;95610.97;;;5.51;77.37
38225;BME280;24025;48.138;11.428;2023-04-08T00:11:29;95606.44;;;5.52;77.65
38225;BME280;24025;48.138;11.428;2023-04-08T00:14:02;95605.22;;;5.49;78.00
38225;BME280;24025;48.138;11.428;2023-04-08T00:16:34;95606.63;;;5.47;77.93
38225;BME280;24025;48.138;11.428;2023-04-08T00:19:05;95609.94;;;5.44;78.26
38225;BME280;24025;48.138;11.428;2023-04-08T00:21:37;95611.25;;;5.37;78.63
38225;BME280;24025;48.138;11.428;2023-04-08T00:24:08;95604.94;;;5.30;79.64
38225;BME280;24025;48.138;11.428;2023-04-08T00:26:40;95610.22;;;5.30;79.32
38225;BME280;24025;48.138;11.428;2023-04-08T00:29:12;95610.88;;;5.27;79.78
38225;BME280;24025;48.138;11.428;2023-04-08T00:31:44;95604.38;;;5.24;79.55
38225;BME280;24025;48.138;11.428;2023-04-08T00:34:15;95609.34;;;5.26;80.38
38225;BME280;24025;48.138;11.428;2023-04-08T00:36:47;95607.34;;;5.23;80.60
38225;BME280;24025;48.138;11.428;2023-04-08T00:39:19;95617.16;;;5.22;80.11
38225;BME280;24025;48.138;11.428;2023-04-08T00:41:50;95623.72;;;5.16;80.50
38225;BME280;24025;48.138;11.428;2023-04-08T00:44:22;95618.56;;;5.20;79.90
38225;BME280;24025;48.138;11.428;2023-04-08T00:46:53;95615.47;;;5.18;80.35
38225;BME280;24025;48.138;11.428;2023-04-08T00:49:25;95625.16;;;5.14;80.41
38225;BME280;24025;48.138;11.428;2023-04-08T00:51:58;95620.19;;;5.12;79.94
38225;BME280;24025;48.138;11.428;2023-04-08T00:54:30;95619.28;;;5.08;80.20
38225;BME280;24025;48.138;11.428;2023-04-08T00:57:02;95620.50;;;5.10;80.34
38225;BME280;24025;48.138;11.428;2023-04-08T00:59:35;95617.53;;;5.12;79.79
38225;BME280;24025;48.138;11.428;2023-04-08T01:05:06;95615.09;;;5.07;80.77
38225;BME280;24025;48.138;11.428;2023-04-08T01:07:47;95619.72;;;5.10;80.64
38225;BME280;24025;48.138;11.428;2023-04-08T01:10:21;95611.47;;;5.11;80.23
38225;BME280;24025;48.138;11.428;2023-04-08T01:12:59;95616.22;;;5.06;80.68
38225;BME280;24025;48.138;11.428;2023-04-08T01:15:34;95608.97;;;4.94;81.22
38225;BME280;24025;48.138;11.428;2023-04-08T01:18:09;95615.91;;;4.87;81.72
38225;BME280;24025;48.138;11.428;2023-04-08T01:20:43;95615.75;;;4.83;82.13
38225;BME280;24025;48.138;11.428;2023-04-08T01:25:54;95611.13;;;4.80;82.72
38225;BME280;24025;48.138;11.428;2023-04-08T01:28:28;95613.63;;;4.76;82.98
38225;BME280;24025;48.138;11.428;2023-04-08T01:31:01;95603.59;;;4.70;82.96
38225;BME280;24025;48.138;11.428;2023-04-08T01:33:33;95608.56;;;4.71;82.99
38225;BME280;24025;48.138;11.428;2023-04-08T01:36:05;95606.69;;;4.72;83.53
38225;BME280;24025;48.138;11.428;2023-04-08T01:38:38;95610.22;;;4.76;82.92
38225;BME280;24025;48.138;11.428;2023-04-08T01:41:10;95611.75;;;4.77;83.48
38225;BME280;24025;48.138;11.428;2023-04-08T01:43:42;95611.31;;;4.75;83.11
38225;BME280;24025;48.138;11.428;2023-04-08T01:46:14;95610.22;;;4.76;83.59
38225;BME280;24025;48.138;11.428;2023-04-08T01:48:47;95613.31;;;4.78;82.81
38225;BME280;24025;48.138;11.428;2023-04-08T01:51:21;95616.25;;;4.76;83.22
38225;BME280;24025;48.138;11.428;2023-04-08T01:53:52;95609.59;;;4.79;82.84
38225;BME280;24025;48.138;11.428;2023-04-08T01:56:26;95606.69;;;4.72;83.58
38225;BME280;24025;48.138;11.428;2023-04-08T01:59:00;95612.16;;;4.67;83.42
38225;BME280;24025;48.138;11.428;2023-04-08T02:01:34;95604.53;;;4.65;83.96
38225;BME280;24025;48.138;11.428;2023-04-08T02:04:06;95609.56;;;4.58;84.95
38225;BME280;24025;48.138;11.428;2023-04-08T02:06:37;95610.53;;;4.53;84.54
38225;BME280;24025;48.138;11.428;2023-04-08T02:09:09;95611.16;;;4.50;84.34
38225;BME280;24025;48.138;11.428;2023-04-08T02:11:41;95611.81;;;4.47;85.50
38225;BME280;24025;48.138;11.428;2023-04-08T02:14:13;95607.75;;;4.50;85.16
38225;BME280;24025;48.138;11.428;2023-04-08T02:19:22;95604.66;;;4.48;85.61
38225;BME280;24025;48.138;11.428;2023-04-08T02:21:59;95605.03;;;4.38;86.72
38225;BME280;24025;48.138;11.428;2023-04-08T02:24:32;95610.91;;;4.43;85.43
38225;BME280;24025;48.138;11.428;2023-04-08T02:27:04;95606.84;;;4.46;85.69
38225;BME280;24025;48.138;11.428;2023-04-08T02:29:40;95612.91;;;4.46;85.90
38225;BME280;24025;48.138;11.428;2023-04-08T02:32:13;95614.91;;;4.49;85.41
38225;BME280;24025;48.138;11.428;2023-04-08T02:34:46;95611.69;;;4.44;85.92
38225;BME280;24025;48.138;11.428;2023-04-08T02:37:18;95609.63;;;4.49;85.21
38225;BME280;24025;48.138;11.428;2023-04-08T02:39:50;95615.22;;;4.48;86.15
38225;BME280;24025;48.138;11.428;2023-04-08T02:42:21;95618.84;;;4.43;86.82
38225;BME280;24025;48.138;11.428;2023-04-08T02:44:53;95614.66;;;4.42;86.24
38225;BME280;24025;48.138;11.428;2023-04-08T02:47:24;95613.56;;;4.43;85.66
38225;BME280;24025;48.138;11.428;2023-04-08T02:49:56;95615.44;;;4.43;86.65
38225;BME280;24025;48.138;11.428;2023-04-08T02:52:27;95615.09;;;4.44;86.42
38225;BME280;24025;48.138;11.428;2023-04-08T02:54:59;95619.63;;;4.44;86.90
38225;BME280;24025;48.138;11.428;2023-04-08T02:57:31;95608.72;;;4.45;86.10
38225;BME280;24025;48.138;11.428;2023-04-08T03:00:04;95610.59;;;4.45;86.29
38225;BME280;24025;48.138;11.428;2023-04-08T03:02:35;95605.97;;;4.42;86.96
38225;BME280;24025;48.138;11.428;2023-04-08T03:05:07;95611.69;;;4.44;86.58
38225;BME280;24025;48.138;11.428;2023-04-08T03:07:40;95614.00;;;4.45;87.43
38225;BME280;24025;48.138;11.428;2023-04-08T03:10:11;95609.16;;;4.47;86.99
38225;BME280;24025;48.138;11.428;2023-04-08T03:12:43;95615.56;;;4.46;87.45
38225;BME280;24025;48.138;11.428;2023-04-08T03:15:14;95622.38;;;4.47;86.90
38225;BME280;24025;48.138;11.428;2023-04-08T03:17:46;95620.19;;;4.49;87.29
38225;BME280;24025;48.138;11.428;2023-04-08T03:20:18;95618.63;;;4.48;86.90
38225;BME280;24025;48.138;11.428;2023-04-08T03:22:49;95625.34;;;4.46;87.79
38225;BME280;24025;48.138;11.428;2023-04-08T03:25:20;95617.28;;;4.42;88.30
38225;BME280;24025;48.138;11.428;2023-04-08T03:27:52;95619.16;;;4.42;87.66
38225;BME280;24025;48.138;11.428;2023-04-08T03:30:24;95614.66;;;4.42;88.44
38225;BME280;24025;48.138;11.428;2023-04-08T03:32:55;95618.38;;;4.41;88.75
38225;BME280;24025;48.138;11.428;2023-04-08T03:35:27;95619.34;;;4.37;89.53
38225;BME280;24025;48.138;11.428;2023-04-08T03:37:59;95616.31;;;4.26;90.12
38225;BME280;24025;48.138;11.428;2023-04-08T03:40:30;95613.28;;;4.36;89.73
38225;BME280;24025;48.138;11.428;2023-04-08T03:43:02;95624.88;;;4.44;89.55
38225;BME280;24025;48.138;11.428;2023-04-08T03:45:33;95620.50;;;4.48;89.69
38225;BME280;24025;48.138;11.428;2023-04-08T03:48:05;95621.88;;;4.54;89.44
38225;BME280;24025;48.138;11.428;2023-04-08T03:50:36;95627.75;;;4.60;89.30
38225;BME280;24025;48.138;11.428;2023-04-08T03:53:08;95630.19;;;4.65;88.87
38225;BME280;24025;48.138;11.428;2023-04-08T03:55:41;95628.47;;;4.69;88.40
38225;BME280;24025;48.138;11.428;2023-04-08T03:58:13;95634.31;;;4.74;88.84
38225;BME280;24025;48.138;11.428;2023-04-08T04:00:44;95634.31;;;4.74;88.98
38225;BME280;24025;48.138;11.428;2023-04-08T04:03:16;95628.06;;;4.79;88.24
38225;BME280;24025;48.138;11.428;2023-04-08T04:05:48;95632.25;;;4.80;89.03
38225;BME280;24025;48.138;11.428;2023-04-08T04:08:20;95637.34;;;4.85;88.54
38225;BME280;24025;48.138;11.428;2023-04-08T04:10:51;95636.63;;;4.76;89.24
38225;BME280;24025;48.138;11.428;2023-04-08T04:13:23;95639.22;;;4.84;89.51
38225;BME280;24025;48.138;11.428;2023-04-08T04:15:54;95640.25;;;4.92;89.00
38225;BME280;24025;48.138;11.428;2023-04-08T04:18:27;95642.69;;;4.97;88.50
38225;BME280;24025;48.138;11.428;2023-04-08T04:20:58;95642.97;;;5.04;88.41
38225;BME280;24025;48.138;11.428;2023-04-08T04:23:30;95648.81;;;5.10;88.81
38225;BME280;24025;48.138;11.428;2023-04-08T04:26:06;95647.16;;;5.05;89.36
38225;BME280;24025;48.138;11.428;2023-04-08T04:28:37;95655.63;;;5.11;88.84
38225;BME280;24025;48.138;11.428;2023-04-08T04:31:17;95653.75;;;5.11;89.45
38225;BME280;24025;48.138;11.428;2023-04-08T04:33:49;95653.47;;;5.13;89.51
38225;BME280;24025;48.138;11.428;2023-04-08T04:36:21;95655.63;;;5.11;90.12
38225;BME280;24025;48.138;11.428;2023-04-08T04:38:53;95656.22;;;5.17;89.57
38225;BME280;24025;48.138;11.428;2023-04-08T04:41:24;95654.94;;;5.23;89.60
38225;BME280;24025;48.138;11.428;2023-04-08T04:43:57;95654.78;;;5.19;90.42
38225;BME280;24025;48.138;11.428;2023-04-08T04:46:29;95669.03;;;5.27;90.19
38225;BME280;24025;48.138;11.428;2023-04-08T04:49:00;95669.03;;;5.27;90.73
38225;BME280;24025;48.138;11.428;2023-04-08T04:51:35;95670.84;;;5.35;89.56
38225;BME280;24025;48.138;11.428;2023-04-08T04:54:07;95678.44;;;5.36;89.94
38225;BME280;24025;48.138;11.428;2023-04-08T04:56:38;95672.38;;;5.36;90.35
38225;BME280;24025;48.138;11.428;2023-04-08T04:59:10;95676.13;;;5.35;90.75
38225;BME280;24025;48.138;11.428;2023-04-08T05:01:41;95677.66;;;5.36;90.58
38225;BME280;24025;48.138;11.428;2023-04-08T05:04:13;95670.94;;;5.38;90.45
38225;BME280;24025;48.138;11.428;2023-04-08T05:06:44;95678.81;;;5.47;90.21
38225;BME280;24025;48.138;11.428;2023-04-08T05:09:16;95672.66;;;5.55;90.18
38225;BME280;24025;48.138;11.428;2023-04-08T05:11:48;95674.13;;;5.65;89.36
38225;BME280;24025;48.138;11.428;2023-04-08T05:14:19;95676.56;;;5.70;89.51
38225;BME280;24025;48.138;11.428;2023-04-08T05:16:51;95681.44;;;5.68;89.77
38225;BME280;24025;48.138;11.428;2023-04-08T05:19:22;95675.91;;;5.73;89.69
38225;BME280;24025;48.138;11.428;2023-04-08T05:21:54;95674.94;;;5.78;89.42
38225;BME280;24025;48.138;11.428;2023-04-08T05:24:25;95675.63;;;5.87;89.00
38225;BME280;24025;48.138;11.428;2023-04-08T05:26:57;95668.75;;;5.74;89.60
38225;BME280;24025;48.138;11.428;2023-04-08T05:29:28;95673.84;;;5.79;89.67
38225;BME280;24025;48.138;11.428;2023-04-08T05:32:00;95675.47;;;5.71;90.18
38225;BME280;24025;48.138;11.428;2023-04-08T05:34:31;95679.34;;;5.74;89.95
38225;BME280;24025;48.138;11.428;2023-04-08T05:37:03;95673.94;;;5.82;90.13
38225;BME280;24025;48.138;11.428;2023-04-08T05:39:34;95677.59;;;5.78;90.81
38225;BME280;24025;48.138;11.428;2023-04-08T05:42:06;95681.38;;;5.89;89.84
38225;BME280;24025;48.138;11.428;2023-04-08T05:44:38;95676.56;;;6.03;89.10
38225;BME280;24025;48.138;11.428;2023-04-08T05:47:11;95683.31;;;6.13;88.54
38225;BME280;24025;48.138;11.428;2023-04-08T05:49:43;95687.16;;;6.15;88.36
38225;BME280;24025;48.138;11.428;2023-04-08T05:52:14;95680.78;;;6.16;88.71
38225;BME280;24025;48.138;11.428;2023-04-08T05:54:46;95691.81;;;6.18;87.95
38225;BME280;24025;48.138;11.428;2023-04-08T05:57:18;95685.09;;;6.33;87.55
38225;BME280;24025;48.138;11.428;2023-04-08T05:59:49;95683.09;;;6.42;86.96
38225;BME280;24025;48.138;11.428;2023-04-08T06:02:21;95692.47;;;6.52;86.63
38225;BME280;24025;48.138;11.428;2023-04-08T06:04:53;95683.91;;;6.55;86.04
38225;BME280;24025;48.138;11.428;2023-04-08T06:07:24;95693.59;;;6.63;85.40
38225;BME280;24025;48.138;11.428;2023-04-08T06:09:56;95690.97;;;6.63;85.49
38225;BME280;24025;48.138;11.428;2023-04-08T06:12:28;95699.34;;;6.65;85.54
38225;BME280;24025;48.138;11.428;2023-04-08T06:14:59;95706.38;;;6.61;85.70
38225;BME280;24025;48.138;11.428;2023-04-08T06:17:31;95697.66;;;6.61;85.66
38225;BME280;24025;48.138;11.428;2023-04-08T06:20:04;95699.56;;;6.60;85.78
38225;BME280;24025;48.138;11.428;2023-04-08T06:22:36;95703.31;;;6.47;86.33
38225;BME280;24025;48.138;11.428;2023-04-08T06:25:08;95707.91;;;6.25;87.09
38225;BME280;24025;48.138;11.428;2023-04-08T06:27:39;95702.63;;;6.25;87.74
38225;BME280;24025;48.138;11.428;2023-04-08T06:30:11;95705.75;;;6.28;87.88
38225;BME280;24025;48.138;11.428;2023-04-08T06:32:43;95707.28;;;6.29;87.97
38225;BME280;24025;48.138;11.428;2023-04-08T06:35:17;95710.47;;;6.22;88.26
38225;BME280;24025;48.138;11.428;2023-04-08T06:37:49;95712.13;;;6.39;87.44
38225;BME280;24025;48.138;11.428;2023-04-08T06:40:20;95715.66;;;6.31;88.24
38225;BME280;24025;48.138;11.428;2023-04-08T06:42:52;95720.97;;;6.43;87.65
38225;BME280;24025;48.138;11.428;2023-04-08T06:45:24;95715.31;;;6.32;88.15
38225;BME280;24025;48.138;11.428;2023-04-08T06:47:56;95716.53;;;6.22;87.99
38225;BME280;24025;48.138;11.428;2023-04-08T06:50:27;95708.91;;;6.33;87.81
38225;BME280;24025;48.138;11.428;2023-04-08T06:52:59;95717.31;;;6.35;87.92
38225;BME280;24025;48.138;11.428;2023-04-08T06:55:30;95716.44;;;6.31;88.17
38225;BME280;24025;48.138;11.428;2023-04-08T06:58:02;95719.41;;;6.42;87.86
38225;BME280;24025;48.138;11.428;2023-04-08T07:00:33;95720.41;;;6.37;87.92
38225;BME280;24025;48.138;11.428;2023-04-08T07:03:06;95715.44;;;6.36;88.35
38225;BME280;24025;48.138;11.428;2023-04-08T07:05:37;95725.38;;;6.39;88.30
38225;BME280;24025;48.138;11.428;2023-04-08T07:08:09;95729.69;;;6.43;87.20
38225;BME280;24025;48.138;11.428;2023-04-08T07:10:41;95721.63;;;6.40;87.11
38225;BME280;24025;48.138;11.428;2023-04-08T07:13:12;95729.22;;;6.53;87.31
38225;BME280;24025;48.138;11.428;2023-04-08T07:15:44;95728.16;;;6.55;86.48
38225;BME280;24025;48.138;11.428;2023-04-08T07:18:15;95733.78;;;6.65;85.96
38225;BME280;24025;48.138;11.428;2023-04-08T07:20:53;95737.06;;;6.62;85.63
38225;BME280;24025;48.138;11.428;2023-04-08T07:23:24;95733.31;;;6.39;86.74
38225;BME280;24025;48.138;11.428;2023-04-08T07:26:01;95740.69;;;6.33;85.72
38225;BME280;24025;48.138;11.428;2023-04-08T07:28:34;95740.28;;;6.43;84.31
38225;BME280;24025;48.138;11.428;2023-04-08T07:31:16;95735.31;;;6.42;84.15
38225;BME280;24025;48.138;11.428;2023-04-08T07:33:47;95748.22;;;6.31;84.02
38225;BME280;24025;48.138;11.428;2023-04-08T07:36:19;95745.03;;;6.38;83.58
38225;BME280;24025;48.138;11.428;2023-04-08T07:38:51;95749.50;;;6.25;83.49
38225;BME280;24025;48.138;11.428;2023-04-08T07:41:22;95748.09;;;6.28;84.28
38225;BME280;24025;48.138;11.428;2023-04-08T07:43:54;95757.25;;;6.30;82.67
38225;BME280;24025;48.138;11.428;2023-04-08T07:46:26;95755.81;;;6.20;82.33
38225;BME280;24025;48.138;11.428;2023-04-08T07:48:58;95761.69;;;6.38;82.47
38225;BME280;24025;48.138;11.428;2023-04-08T07:51:29;95757.25;;;6.42;78.28
38225;BME280;24025;48.138;11.428;2023-04-08T07:54:01;95761.72;;;6.63;72.49
38225;BME280;24025;48.138;11.428;2023-04-08T07:56:32;95765.91;;;6.76;71.42
38225;BME280;24025;48.138;11.428;2023-04-08T07:59:04;95763.59;;;6.99;69.73
38225;BME280;24025;48.138;11.428;2023-04-08T08:01:35;95765.00;;;6.96;68.64
38225;BME280;24025;48.138;11.428;2023-04-08T08:04:07;95763.13;;;7.09;68.65
38225;BME280;24025;48.138;11.428;2023-04-08T08:06:39;95763.41;;;7.32;69.25
38225;BME280;24025;48.138;11.428;2023-04-08T08:09:10;95777.13;;;7.34;65.81
38225;BME280;24025;48.138;11.428;2023-04-08T08:11:42;95767.56;;;6.93;65.52
38225;BME280;24025;48.138;11.428;2023-04-08T08:14:13;95774.06;;;6.95;66.28
38225;BME280;24025;48.138;11.428;2023-04-08T08:16:45;95778.28;;;7.08;66.22
38225;BME280;24025;48.138;11.428;2023-04-08T08:19:16;95778.91;;;7.05;65.38
38225;BME280;24025;48.138;11.428;2023-04-08T08:21:48;95781.81;;;6.88;63.94
38225;BME280;24025;48.138;11.428;2023-04-08T08:24:19;95778.06;;;6.89;64.72
38225;BME280;24025;48.138;11.428;2023-04-08T08:26:51;95780.81;;;6.80;66.28
38225;BME280;24025;48.138;11.428;2023-04-08T08:29:22;95783.13;;;6.94;67.61
38225;BME280;24025;48.138;11.428;2023-04-08T08:31:54;95781.91;;;7.04;67.99
38225;BME280;24025;48.138;11.428;2023-04-08T08:34:25;95788.53;;;6.98;67.84
38225;BME280;24025;48.138;11.428;2023-04-08T08:36:57;95782.34;;;7.06;67.94
38225;BME280;24025;48.138;11.428;2023-04-08T08:39:28;95789.66;;;7.09;69.32
38225;BME280;24025;48.138;11.428;2023-04-08T08:42:01;95783.25;;;6.73;68.58
38225;BME280;24025;48.138;11.428;2023-04-08T08:44:33;95791.31;;;6.77;69.85
38225;BME280;24025;48.138;11.428;2023-04-08T08:47:04;95792.97;;;6.81;69.66
38225;BME280;24025;48.138;11.428;2023-04-08T08:49:36;95791.84;;;6.46;67.10
38225;BME280;24025;48.138;11.428;2023-04-08T08:52:09;95799.78;;;6.58;67.34
38225;BME280;24025;48.138;11.428;2023-04-08T08:54:42;95798.75;;;6.38;67.19
38225;BME280;24025;48.138;11.428;2023-04-08T08:57:18;95804.41;;;6.37;67.14
38225;BME280;24025;48.138;11.428;2023-04-08T08:59:50;95805.88;;;6.13;68.99
38225;BME280;24025;48.138;11.428;2023-04-08T09:02:29;95809.78;;;5.95;70.12
38225;BME280;24025;48.138;11.428;2023-04-08T09:05:03;95805.50;;;6.03;71.36
38225;BME280;24025;48.138;11.428;2023-04-08T09:07:36;95815.28;;;5.81;72.38
38225;BME280;24025;48.138;11.428;2023-04-08T09:10:10;95807.59;;;5.88;73.82
38225;BME280;24025;48.138;11.428;2023-04-08T09:12:54;95815.63;;;5.80;73.72
38225;BME280;24025;48.138;11.428;2023-04-08T09:15:26;95811.25;;;5.84;75.12
38225;BME280;24025;48.138;11.428;2023-04-08T09:17:58;95814.00;;;5.87;74.98
38225;BME280;24025;48.138;11.428;2023-04-08T09:20:30;95819.13;;;5.92;72.98
38225;BME280;24025;48.138;11.428;2023-04-08T09:23:01;95817.94;;;5.81;73.27
38225;BME280;24025;48.138;11.428;2023-04-08T09:25:33;95818.81;;;5.94;74.21
38225;BME280;24025;48.138;11.428;2023-04-08T09:28:18;95817.31;;;6.05;73.84
38225;BME280;24025;48.138;11.428;2023-04-08T09:30:50;95823.38;;;5.85;73.00
38225;BME280;24025;48.138;11.428;2023-04-08T09:33:28;95826.75;;;5.94;73.75
38225;BME280;24025;48.138;11.428;2023-04-08T09:36:02;95824.66;;;5.79;73.40
38225;BME280;24025;48.138;11.428;2023-04-08T09:38:34;95833.16;;;5.63;72.25
38225;BME280;24025;48.138;11.428;2023-04-08T09:41:06;95838.00;;;5.40;72.35
38225;BME280;24025;48.138;11.428;2023-04-08T09:43:52;95827.75;;;5.60;72.46
38225;BME280;24025;48.138;11.428;2023-04-08T09:46:26;95827.50;;;5.74;72.13
38225;BME280;24025;48.138;11.428;2023-04-08T09:49:06;95825.31;;;5.76;71.57
38225;BME280;24025;48.138;11.428;2023-04-08T09:51:48;95833.75;;;5.90;71.25
38225;BME280;24025;48.138;11.428;2023-04-08T09:54:21;95827.56;;;5.86;71.58
38225;BME280;24025;48.138;11.428;2023-04-08T09:57:09;95823.97;;;5.90;71.69
38225;BME280;24025;48.138;11.428;2023-04-08T09:59:51;95824.91;;;6.07;71.63
38225;BME280;24025;48.138;11.428;2023-04-08T10:02:29;95827.72;;;6.22;70.71
38225;BME280;24025;48.138;11.428;2023-04-08T10:05:06;95833.63;;;6.40;70.41
38225;BME280;24025;48.138;11.428;2023-04-08T10:07:40;95825.81;;;6.11;69.82
38225;BME280;24025;48.138;11.428;2023-04-08T10:10:11;95826.19;;;6.21;70.44
38225;BME280;24025;48.138;11.428;2023-04-08T10:12:43;95818.84;;;6.39;70.19
38225;BME280;24025;48.138;11.428;2023-04-08T10:15:31;95816.78;;;6.57;70.29
38225;BME280;24025;48.138;11.428;2023-04-08T10:23:10;95814.28;;;7.22;68.22
38225;BME280;24025;48.138;11.428;2023-04-08T10:25:47;95818.38;;;7.19;67.15
38225;BME280;24025;48.138;11.428;2023-04-08T10:30:55;95810.97;;;6.88;68.21
38225;BME280;24025;48.138;11.428;2023-04-08T10:38:42;95814.41;;;7.25;66.54
38225;BME280;24025;48.138;11.428;2023-04-08T10:41:22;95812.78;;;7.49;66.61
38225;BME280;24025;48.138;11.428;2023-04-08T10:43:54;95819.00;;;7.53;65.62
38225;BME280;24025;48.138;11.428;2023-04-08T10:46:36;95818.53;;;7.51;65.09
38225;BME280;24025;48.138;11.428;2023-04-08T10:49:08;95822.53;;;7.45;66.61
38225;BME280;24025;48.138;11.428;2023-04-08T10:51:40;95823.22;;;7.05;67.34
38225;BME280;24025;48.138;11.428;2023-04-08T10:54:16;95814.63;;;6.84;67.15
38225;BME280;24025;48.138;11.428;2023-04-08T10:56:50;95809.41;;;6.63;68.80
38225;BME280;24025;48.138;11.428;2023-04-08T10:59:30;95808.59;;;6.62;68.71
38225;BME280;24025;48.138;11.428;2023-04-08T11:02:05;95813.66;;;6.43;69.36
38225;BME280;24025;48.138;11.428;2023-04-08T11:04:40;95812.16;;;6.54;70.94
38225;BME280;24025;48.138;11.428;2023-04-08T11:07:12;95808.13;;;6.36;70.89
38225;BME280;24025;48.138;11.428;2023-04-08T11:09:45;95811.22;;;6.38;71.30
38225;BME280;24025;48.138;11.428;2023-04-08T11:12:17;95807.03;;;6.37;72.14
38225;BME280;24025;48.138;11.428;2023-04-08T11:14:49;95808.59;;;6.50;71.68
38225;BME280;24025;48.138;11.428;2023-04-08T11:17:23;95806.91;;;6.33;73.70
38225;BME280;24025;48.138;11.428;2023-04-08T11:19:56;95812.44;;;6.28;72.15
38225;BME280;24025;48.138;11.428;2023-04-08T11:22:32;95810.97;;;5.97;73.11
38225;BME280;24025;48.138;11.428;2023-04-08T11:25:05;95812.59;;;6.11;73.71
38225;BME280;24025;48.138;11.428;2023-04-08T11:27:39;95818.31;;;6.13;73.92
38225;BME280;24025;48.138;11.428;2023-04-08T11:30:12;95813.06;;;6.25;73.54
38225;BME280;24025;48.138;11.428;2023-04-08T11:32:43;95816.38;;;6.22;74.10
38225;BME280;24025;48.138;11.428;2023-04-08T11:35:15;95817.34;;;6.17;73.27
38225;BME280;24025;48.138;11.428;2023-04-08T11:37:47;95812.69;;;6.14;73.17
38225;BME280;24025;48.138;11.428;2023-04-08T11:40:20;95814.00;;;6.08;73.45
38225;BME280;24025;48.138;11.428;2023-04-08T11:42:52;95819.00;;;6.10;73.85
38225;BME280;24025;48.138;11.428;2023-04-08T11:45:25;95816.81;;;6.24;71.37
38225;BME280;24025;48.138;11.428;2023-04-08T11:47:58;95818.06;;;6.39;71.20
38225;BME280;24025;48.138;11.428;2023-04-08T11:50:30;95817.88;;;6.11;72.23
38225;BME280;24025;48.138;11.428;2023-04-08T11:53:02;95814.69;;;6.17;73.30
38225;BME280;24025;48.138;11.428;2023-04-08T11:55:34;95815.63;;;6.34;72.79
38225;BME280;24025;48.138;11.428;2023-04-08T11:58:06;95818.56;;;6.20;72.77
38225;BME280;24025;48.138;11.428;2023-04-08T12:00:37;95817.75;;;6.07;73.32
38225;BME280;24025;48.138;11.428;2023-04-08T12:03:10;95818.75;;;6.03;74.70
38225;BME280;24025;48.138;11.428;2023-04-08T12:05:42;95817.75;;;6.07;75.06
38225;BME280;24025;48.138;11.428;2023-04-08T12:08:14;95826.94;;;6.10;74.16
38225;BME280;24025;48.138;11.428;2023-04-08T12:10:45;95828.06;;;6.21;72.41
38225;BME280;24025;48.138;11.428;2023-04-08T12:13:17;95827.53;;;6.28;71.99
38225;BME280;24025;48.138;11.428;2023-04-08T12:15:48;95829.94;;;6.20;72.60
38225;BME280;24025;48.138;11.428;2023-04-08T12:18:20;95830.38;;;6.22;72.56
38225;BME280;24025;48.138;11.428;2023-04-08T12:20:52;95830.28;;;6.19;72.56
38225;BME280;24025;48.138;11.428;2023-04-08T12:23:23;95839.75;;;6.20;72.36
38225;BME280;24025;48.138;11.428;2023-04-08T12:25:55;95841.50;;;6.16;71.83
38225;BME280;24025;48.138;11.428;2023-04-08T12:28:26;95844.44;;;6.02;72.51
38225;BME280;24025;48.138;11.428;2023-04-08T12:30:58;95847.25;;;5.97;72.13
38225;BME280;24025;48.138;11.428;2023-04-08T12:33:30;95848.28;;;5.84;72.19
38225;BME280;24025;48.138;11.428;2023-04-08T12:36:02;95848.72;;;5.86;73.46
38225;BME280;24025;48.138;11.428;2023-04-08T12:38:34;95845.06;;;5.99;73.92
38225;BME280;24025;48.138;11.428;2023-04-08T12:41:05;95848.78;;;5.77;74.32
38225;BME280;24025;48.138;11.428;2023-04-08T12:43:37;95846.94;;;5.99;73.71
38225;BME280;24025;48.138;11.428;2023-04-08T12:46:09;95850.22;;;5.75;74.46
38225;BME280;24025;48.138;11.428;2023-04-08T12:48:41;95854.22;;;5.81;74.99
38225;BME280;24025;48.138;11.428;2023-04-08T12:51:15;95850.91;;;5.92;74.31
38225;BME280;24025;48.138;11.428;2023-04-08T12:53:46;95852.94;;;5.87;75.14
38225;BME280;24025;48.138;11.428;2023-04-08T12:56:18;95852.13;;;5.95;74.89
38225;BME280;24025;48.138;11.428;2023-04-08T12:58:51;95856.13;;;6.01;74.22
38225;BME280;24025;48.138;11.428;2023-04-08T13:01:23;95860.34;;;5.73;75.43
38225;BME280;24025;48.138;11.428;2023-04-08T13:03:55;95851.50;;;5.89;74.81
38225;BME280;24025;48.138;11.428;2023-04-08T13:06:26;95860.16;;;5.99;75.10
38225;BME280;24025;48.138;11.428;2023-04-08T13:08:58;95857.50;;;5.78;75.30
38225;BME280;24025;48.138;11.428;2023-04-08T13:11:29;95858.00;;;5.71;75.88
38225;BME280;24025;48.138;11.428;2023-04-08T13:14:01;95855.38;;;5.71;75.92
38225;BME280;24025;48.138;11.428;2023-04-08T13:16:33;95861.50;;;5.63;76.41
38225;BME280;24025;48.138;11.428;2023-04-08T13:19:04;95854.75;;;5.45;77.25
38225;BME280;24025;48.138;11.428;2023-04-08T13:21:36;95857.13;;;5.67;77.51
38225;BME280;24025;48.138;11.428;2023-04-08T13:24:08;95850.84;;;5.72;76.34
38225;BME280;24025;48.138;11.428;2023-04-08T13:26:39;95860.00;;;5.74;76.40
38225;BME280;24025;48.138;11.428;2023-04-08T13:29:11;95855.88;;;5.64;77.06
38225;BME280;24025;48.138;11.428;2023-04-08T13:31:42;95860.28;;;5.60;77.25
38225;BME280;24025;48.138;11.428;2023-04-08T13:34:14;95860.28;;;5.81;77.72
38225;BME280;24025;48.138;11.428;2023-04-08T13:36:46;95861.53;;;5.84;77.71
38225;BME280;24025;48.138;11.428;2023-04-08T13:39:17;95866.13;;;5.95;77.03
38225;BME280;24025;48.138;11.428;2023-04-08T13:41:49;95856.22;;;5.84;77.26
38225;BME280;24025;48.138;11.428;2023-04-08T13:44:20;95861.19;;;5.85;77.25
38225;BME280;24025;48.138;11.428;2023-04-08T13:46:52;95870.91;;;6.02;77.16
38225;BME280;24025;48.138;11.428;2023-04-08T13:49:23;95858.78;;;6.01;76.84